TimeMST,TemperatureF,Dew PointF,Humidity,Sea Level PressureIn,VisibilityMPH,Wind Direction,Wind SpeedMPH,Gust SpeedMPH,PrecipitationIn,Events,Conditions,WindDirDegrees,DateUTC
12:53 AM,19.9,12.0,71,30.09,10.0,South,5.8,-,N/A,,Clear,180,2012-12-12 07:53:00
1:53 AM,18.0,10.9,74,30.08,10.0,South,8.1,-,N/A,,Clear,170,2012-12-12 08:53:00
2:53 AM,18.0,12.0,78,30.06,10.0,SE,5.8,-,N/A,,Clear,140,2012-12-12 09:53:00
3:53 AM,18.0,12.0,78,30.03,10.0,SSE,5.8,-,N/A,,Clear,160,2012-12-12 10:53:00
4:53 AM,17.1,12.0,81,30.06,10.0,Calm,Calm,-,N/A,,Clear,0,2012-12-12 11:53:00
5:53 AM,15.1,10.9,84,30.08,10.0,SE,6.9,-,N/A,,Clear,140,2012-12-12 12:53:00
6:53 AM,19.0,10.9,71,30.10,10.0,SSE,8.1,-,N/A,,Clear,160,2012-12-12 13:53:00
7:53 AM,19.0,12.0,74,30.10,10.0,ESE,5.8,-,N/A,,Clear,120,2012-12-12 14:53:00
8:53 AM,25.0,12.9,60,30.09,10.0,Calm,Calm,-,N/A,,Clear,0,2012-12-12 15:53:00
9:53 AM,28.9,16.0,58,30.08,10.0,Calm,Calm,-,N/A,,Clear,0,2012-12-12 16:53:00
10:18 AM,30.2,14.0,51,30.02,10.0,East,12.7,24.2,N/A,,Clear,90,2012-12-12 17:18:00
10:53 AM,33.1,15.1,48,30.04,10.0,East,17.3,21.9,N/A,,Clear,90,2012-12-12 17:53:00
11:53 AM,37.9,17.1,43,29.99,10.0,ENE,9.2,-,N/A,,Clear,60,2012-12-12 18:53:00
12:53 PM,39.0,18.0,43,29.98,10.0,East,10.4,-,N/A,,Clear,90,2012-12-12 19:53:00
1:53 PM,43.0,19.9,40,29.96,10.0,Calm,Calm,-,N/A,,Clear,0,2012-12-12 20:53:00
2:53 PM,46.0,19.9,35,29.94,10.0,North,4.6,-,N/A,,Clear,10,2012-12-12 21:53:00
3:53 PM,43.0,21.9,43,29.94,10.0,Calm,Calm,-,N/A,,Clear,0,2012-12-12 22:53:00
4:53 PM,39.9,19.9,45,29.96,10.0,SSE,6.9,-,N/A,,Clear,150,2012-12-12 23:53:00
5:53 PM,35.1,21.0,57,30.01,10.0,South,5.8,-,N/A,,Clear,180,2012-12-13 00:53:00
6:53 PM,35.1,19.9,54,30.01,10.0,SW,4.6,-,N/A,,Clear,230,2012-12-13 01:53:00
7:53 PM,36.0,19.0,50,30.00,10.0,SE,9.2,-,N/A,,Clear,130,2012-12-13 02:53:00
8:53 PM,37.0,18.0,46,29.99,10.0,ESE,11.5,-,N/A,,Clear,120,2012-12-13 03:53:00
9:53 PM,41.0,15.1,35,29.96,10.0,Variable,4.6,-,N/A,,Clear,0,2012-12-13 04:53:00
10:53 PM,37.0,16.0,42,29.97,10.0,NW,3.5,-,N/A,,Clear,320,2012-12-13 05:53:00
11:53 PM,37.9,15.1,39,29.95,10.0,East,6.9,-,N/A,,Clear,100,2012-12-13 06:53:00